sensor_id;sensor_type;location;lat;lon;timestamp;P1;durP1;ratioP1;P2;durP2;ratioP2
21274;SDS011;36472;52.170;20.884;2022-08-07T00:02:11;3.88;;;2.17;;
21274;SDS011;36472;52.170;20.884;2022-08-07T00:05:02;2.85;;;2.03;;
21274;SDS011;36472;52.170;20.884;2022-08-07T00:07:32;3.58;;;2.22;;
21274;SDS011;36472;52.170;20.884;2022-08-07T00:10:07;3.13;;;1.88;;
21274;SDS011;36472;52.170;20.884;2022-08-07T00:12:55;2.80;;;2.20;;
21274;SDS011;36472;52.170;20.884;2022-08-07T00:15:28;2.50;;;1.70;;
21274;SDS011;36472;52.170;20.884;2022-08-07T00:18:12;2.25;;;1.92;;
21274;SDS011;36472;52.170;20.884;2022-08-07T00:20:47;3.58;;;1.95;;
21274;SDS011;36472;52.170;20.884;2022-08-07T00:23:16;2.90;;;1.90;;
21274;SDS011;36472;52.170;20.884;2022-08-07T00:25:47;3.15;;;1.90;;
21274;SDS011;36472;52.170;20.884;2022-08-07T00:28:24;3.15;;;1.88;;
21274;SDS011;36472;52.170;20.884;2022-08-07T00:31:00;4.93;;;2.20;;
21274;SDS011;36472;52.170;20.884;2022-08-07T00:33:39;2.10;;;1.58;;
21274;SDS011;36472;52.170;20.884;2022-08-07T00:36:09;2.92;;;1.60;;
21274;SDS011;36472;52.170;20.884;2022-08-07T00:38:39;4.13;;;1.80;;
21274;SDS011;36472;52.170;20.884;2022-08-07T00:41:08;2.25;;;1.60;;
21274;SDS011;36472;52.170;20.884;2022-08-07T00:43:41;2.45;;;1.70;;
21274;SDS011;36472;52.170;20.884;2022-08-07T00:46:28;2.47;;;2.00;;
21274;SDS011;36472;52.170;20.884;2022-08-07T00:49:00;2.13;;;1.92;;
21274;SDS011;36472;52.170;20.884;2022-08-07T00:51:30;2.25;;;2.03;;
21274;SDS011;36472;52.170;20.884;2022-08-07T00:54:20;4.00;;;1.83;;
21274;SDS011;36472;52.170;20.884;2022-08-07T00:56:49;3.75;;;1.95;;
21274;SDS011;36472;52.170;20.884;2022-08-07T00:59:18;1.98;;;1.52;;
21274;SDS011;36472;52.170;20.884;2022-08-07T01:02:01;4.80;;;2.22;;
21274;SDS011;36472;52.170;20.884;2022-08-07T01:04:39;2.38;;;1.80;;
21274;SDS011;36472;52.170;20.884;2022-08-07T01:07:11;3.63;;;1.98;;
21274;SDS011;36472;52.170;20.884;2022-08-07T01:09:40;2.30;;;1.77;;
21274;SDS011;36472;52.170;20.884;2022-08-07T01:12:29;2.70;;;1.52;;
21274;SDS011;36472;52.170;20.884;2022-08-07T01:14:59;2.22;;;2.03;;
21274;SDS011;36472;52.170;20.884;2022-08-07T01:17:30;1.80;;;1.50;;
21274;SDS011;36472;52.170;20.884;2022-08-07T01:20:04;3.92;;;1.90;;
21274;SDS011;36472;52.170;20.884;2022-08-07T01:22:44;2.97;;;1.98;;
21274;SDS011;36472;52.170;20.884;2022-08-07T01:25:34;2.10;;;1.80;;
21274;SDS011;36472;52.170;20.884;2022-08-07T01:28:22;4.38;;;1.95;;
21274;SDS011;36472;52.170;20.884;2022-08-07T01:30:55;3.22;;;1.83;;
21274;SDS011;36472;52.170;20.884;2022-08-07T01:33:30;2.08;;;1.80;;
21274;SDS011;36472;52.170;20.884;2022-08-07T01:36:20;2.33;;;1.55;;
21274;SDS011;36472;52.170;20.884;2022-08-07T01:39:08;2.60;;;2.25;;
21274;SDS011;36472;52.170;20.884;2022-08-07T01:41:44;3.78;;;1.90;;
21274;SDS011;36472;52.170;20.884;2022-08-07T01:44:35;3.38;;;2.00;;
21274;SDS011;36472;52.170;20.884;2022-08-07T01:47:04;2.80;;;1.70;;
21274;SDS011;36472;52.170;20.884;2022-08-07T01:49:54;5.57;;;1.90;;
21274;SDS011;36472;52.170;20.884;2022-08-07T01:52:27;1.90;;;1.42;;
21274;SDS011;36472;52.170;20.884;2022-08-07T01:55:01;2.45;;;1.75;;
21274;SDS011;36472;52.170;20.884;2022-08-07T01:57:38;3.33;;;1.80;;
21274;SDS011;36472;52.170;20.884;2022-08-07T02:00:30;4.25;;;2.50;;
21274;SDS011;36472;52.170;20.884;2022-08-07T02:03:15;2.58;;;2.08;;
21274;SDS011;36472;52.170;20.884;2022-08-07T02:06:11;2.75;;;2.08;;
21274;SDS011;36472;52.170;20.884;2022-08-07T02:09:00;2.08;;;1.95;;
21274;SDS011;36472;52.170;20.884;2022-08-07T02:11:37;3.30;;;2.25;;
21274;SDS011;36472;52.170;20.884;2022-08-07T02:14:31;2.22;;;1.83;;
21274;SDS011;36472;52.170;20.884;2022-08-07T02:17:14;3.63;;;2.40;;
21274;SDS011;36472;52.170;20.884;2022-08-07T02:19:54;2.47;;;2.28;;
21274;SDS011;36472;52.170;20.884;2022-08-07T02:22:34;5.30;;;2.35;;
21274;SDS011;36472;52.170;20.884;2022-08-07T02:25:09;3.92;;;2.25;;
21274;SDS011;36472;52.170;20.884;2022-08-07T02:27:55;2.10;;;2.00;;
21274;SDS011;36472;52.170;20.884;2022-08-07T02:30:33;4.28;;;2.65;;
21274;SDS011;36472;52.170;20.884;2022-08-07T02:33:03;1.95;;;1.75;;
21274;SDS011;36472;52.170;20.884;2022-08-07T02:35:37;2.47;;;2.00;;
21274;SDS011;36472;52.170;20.884;2022-08-07T02:38:31;5.82;;;2.17;;
21274;SDS011;36472;52.170;20.884;2022-08-07T02:41:18;3.95;;;2.40;;
21274;SDS011;36472;52.170;20.884;2022-08-07T02:43:52;2.38;;;2.17;;
21274;SDS011;36472;52.170;20.884;2022-08-07T02:46:25;2.75;;;2.25;;
21274;SDS011;36472;52.170;20.884;2022-08-07T02:48:59;2.65;;;2.05;;
21274;SDS011;36472;52.170;20.884;2022-08-07T02:51:29;4.03;;;2.17;;
21274;SDS011;36472;52.170;20.884;2022-08-07T02:54:19;2.55;;;2.35;;
21274;SDS011;36472;52.170;20.884;2022-08-07T02:56:53;3.35;;;2.08;;
21274;SDS011;36472;52.170;20.884;2022-08-07T02:59:33;4.07;;;2.50;;
21274;SDS011;36472;52.170;20.884;2022-08-07T03:02:05;2.60;;;2.17;;
21274;SDS011;36472;52.170;20.884;2022-08-07T03:04:37;4.15;;;2.13;;
21274;SDS011;36472;52.170;20.884;2022-08-07T03:07:13;4.35;;;2.20;;
21274;SDS011;36472;52.170;20.884;2022-08-07T03:10:05;3.97;;;2.60;;
21274;SDS011;36472;52.170;20.884;2022-08-07T03:12:40;5.32;;;2.50;;
21274;SDS011;36472;52.170;20.884;2022-08-07T03:15:16;3.55;;;2.70;;
21274;SDS011;36472;52.170;20.884;2022-08-07T03:18:06;3.30;;;2.13;;
21274;SDS011;36472;52.170;20.884;2022-08-07T03:20:43;2.45;;;1.70;;
21274;SDS011;36472;52.170;20.884;2022-08-07T03:23:13;3.15;;;2.30;;
21274;SDS011;36472;52.170;20.884;2022-08-07T03:25:46;2.00;;;1.85;;
21274;SDS011;36472;52.170;20.884;2022-08-07T03:28:24;4.18;;;2.42;;
21274;SDS011;36472;52.170;20.884;2022-08-07T03:31:07;4.45;;;2.20;;
21274;SDS011;36472;52.170;20.884;2022-08-07T03:33:55;3.13;;;2.45;;
21274;SDS011;36472;52.170;20.884;2022-08-07T03:36:32;3.83;;;2.00;;
21274;SDS011;36472;52.170;20.884;2022-08-07T03:39:04;2.40;;;2.20;;
21274;SDS011;36472;52.170;20.884;2022-08-07T03:41:39;3.42;;;2.05;;
21274;SDS011;36472;52.170;20.884;2022-08-07T03:44:17;2.72;;;2.20;;
21274;SDS011;36472;52.170;20.884;2022-08-07T03:46:59;2.58;;;2.35;;
21274;SDS011;36472;52.170;20.884;2022-08-07T03:49:39;4.05;;;2.20;;
21274;SDS011;36472;52.170;20.884;2022-08-07T03:52:21;2.72;;;2.10;;
21274;SDS011;36472;52.170;20.884;2022-08-07T03:54:57;3.05;;;1.90;;
21274;SDS011;36472;52.170;20.884;2022-08-07T03:57:35;3.88;;;2.53;;
21274;SDS011;36472;52.170;20.884;2022-08-07T04:00:31;3.03;;;2.05;;
21274;SDS011;36472;52.170;20.884;2022-08-07T04:03:13;3.20;;;2.08;;
21274;SDS011;36472;52.170;20.884;2022-08-07T04:05:44;3.28;;;2.42;;
21274;SDS011;36472;52.170;20.884;2022-08-07T04:08:20;4.32;;;2.45;;
21274;SDS011;36472;52.170;20.884;2022-08-07T04:10:52;3.47;;;2.42;;
21274;SDS011;36472;52.170;20.884;2022-08-07T04:13:43;7.40;;;2.67;;
21274;SDS011;36472;52.170;20.884;2022-08-07T04:16:34;2.58;;;2.30;;
21274;SDS011;36472;52.170;20.884;2022-08-07T04:19:11;3.10;;;2.80;;
21274;SDS011;36472;52.170;20.884;2022-08-07T04:21:47;3.55;;;2.63;;
21274;SDS011;36472;52.170;20.884;2022-08-07T04:24:38;4.25;;;2.42;;
21274;SDS011;36472;52.170;20.884;2022-08-07T04:27:11;3.03;;;2.28;;
21274;SDS011;36472;52.170;20.884;2022-08-07T04:29:52;4.47;;;2.70;;
21274;SDS011;36472;52.170;20.884;2022-08-07T04:32:37;5.85;;;2.85;;
21274;SDS011;36472;52.170;20.884;2022-08-07T04:35:12;5.75;;;2.55;;
21274;SDS011;36472;52.170;20.884;2022-08-07T04:37:43;3.20;;;2.30;;
21274;SDS011;36472;52.170;20.884;2022-08-07T04:40:32;5.18;;;2.70;;
21274;SDS011;36472;52.170;20.884;2022-08-07T04:43:10;6.95;;;3.22;;
21274;SDS011;36472;52.170;20.884;2022-08-07T04:45:46;5.55;;;2.60;;
21274;SDS011;36472;52.170;20.884;2022-08-07T04:48:33;4.22;;;3.03;;
21274;SDS011;36472;52.170;20.884;2022-08-07T04:51:20;3.85;;;2.28;;
21274;SDS011;36472;52.170;20.884;2022-08-07T04:54:05;6.20;;;2.80;;
21274;SDS011;36472;52.170;20.884;2022-08-07T04:56:49;4.22;;;2.50;;
21274;SDS011;36472;52.170;20.884;2022-08-07T04:59:48;3.78;;;2.30;;
21274;SDS011;36472;52.170;20.884;2022-08-07T05:02:42;6.07;;;2.30;;
21274;SDS011;36472;52.170;20.884;2022-08-07T05:05:25;5.43;;;2.42;;
21274;SDS011;36472;52.170;20.884;2022-08-07T05:08:26;2.97;;;2.47;;
21274;SDS011;36472;52.170;20.884;2022-08-07T05:11:29;3.92;;;2.40;;
21274;SDS011;36472;52.170;20.884;2022-08-07T05:14:24;5.03;;;2.38;;
21274;SDS011;36472;52.170;20.884;2022-08-07T05:17:19;4.47;;;2.13;;
21274;SDS011;36472;52.170;20.884;2022-08-07T05:20:12;3.53;;;2.00;;
21274;SDS011;36472;52.170;20.884;2022-08-07T05:22:45;4.90;;;2.97;;
21274;SDS011;36472;52.170;20.884;2022-08-07T05:25:21;5.13;;;2.90;;
21274;SDS011;36472;52.170;20.884;2022-08-07T05:28:14;8.93;;;3.28;;
21274;SDS011;36472;52.170;20.884;2022-08-07T05:30:52;11.27;;;4.00;;
21274;SDS011;36472;52.170;20.884;2022-08-07T05:33:26;8.25;;;4.57;;
21274;SDS011;36472;52.170;20.884;2022-08-07T05:36:03;10.02;;;4.57;;
21274;SDS011;36472;52.170;20.884;2022-08-07T05:38:48;7.57;;;2.97;;
21274;SDS011;36472;52.170;20.884;2022-08-07T05:41:35;4.50;;;2.45;;
21274;SDS011;36472;52.170;20.884;2022-08-07T05:44:26;6.55;;;2.35;;
21274;SDS011;36472;52.170;20.884;2022-08-07T05:47:03;5.22;;;2.15;;
21274;SDS011;36472;52.170;20.884;2022-08-07T05:49:48;4.28;;;1.50;;
21274;SDS011;36472;52.170;20.884;2022-08-07T05:52:22;2.33;;;1.50;;
21274;SDS011;36472;52.170;20.884;2022-08-07T05:55:00;4.90;;;1.77;;
21274;SDS011;36472;52.170;20.884;2022-08-07T05:57:40;6.85;;;1.70;;
21274;SDS011;36472;52.170;20.884;2022-08-07T06:00:14;3.03;;;1.45;;
21274;SDS011;36472;52.170;20.884;2022-08-07T06:02:53;6.22;;;1.88;;
21274;SDS011;36472;52.170;20.884;2022-08-07T06:05:27;3.05;;;1.60;;
21274;SDS011;36472;52.170;20.884;2022-08-07T06:08:07;4.38;;;1.48;;
21274;SDS011;36472;52.170;20.884;2022-08-07T06:10:56;4.07;;;1.33;;
21274;SDS011;36472;52.170;20.884;2022-08-07T06:13:31;2.53;;;1.17;;
21274;SDS011;36472;52.170;20.884;2022-08-07T06:16:21;3.75;;;1.60;;
21274;SDS011;36472;52.170;20.884;2022-08-07T06:18:56;3.50;;;1.42;;
21274;SDS011;36472;52.170;20.884;2022-08-07T06:21:27;2.28;;;1.10;;
21274;SDS011;36472;52.170;20.884;2022-08-07T06:24:17;3.90;;;1.10;;
21274;SDS011;36472;52.170;20.884;2022-08-07T06:27:06;2.05;;;0.95;;
21274;SDS011;36472;52.170;20.884;2022-08-07T06:29:37;4.30;;;1.27;;
21274;SDS011;36472;52.170;20.884;2022-08-07T06:32:07;3.20;;;1.15;;
21274;SDS011;36472;52.170;20.884;2022-08-07T06:34:39;1.27;;;0.98;;
21274;SDS011;36472;52.170;20.884;2022-08-07T06:37:11;2.00;;;0.80;;
21274;SDS011;36472;52.170;20.884;2022-08-07T06:39:43;2.10;;;0.80;;
21274;SDS011;36472;52.170;20.884;2022-08-07T06:42:33;3.25;;;0.80;;
21274;SDS011;36472;52.170;20.884;2022-08-07T06:45:28;5.30;;;1.38;;
21274;SDS011;36472;52.170;20.884;2022-08-07T06:48:01;2.10;;;0.90;;
21274;SDS011;36472;52.170;20.884;2022-08-07T06:50:41;4.07;;;1.20;;
21274;SDS011;36472;52.170;20.884;2022-08-07T06:53:16;2.17;;;1.00;;
21274;SDS011;36472;52.170;20.884;2022-08-07T06:56:10;2.05;;;1.10;;
21274;SDS011;36472;52.170;20.884;2022-08-07T06:58:45;3.22;;;1.20;;
21274;SDS011;36472;52.170;20.884;2022-08-07T07:01:42;3.22;;;1.05;;
21274;SDS011;36472;52.170;20.884;2022-08-07T07:04:16;3.53;;;0.90;;
21274;SDS011;36472;52.170;20.884;2022-08-07T07:06:59;1.85;;;0.88;;
21274;SDS011;36472;52.170;20.884;2022-08-07T07:09:45;3.10;;;0.80;;
21274;SDS011;36472;52.170;20.884;2022-08-07T07:12:18;1.05;;;0.70;;
21274;SDS011;36472;52.170;20.884;2022-08-07T07:15:00;2.63;;;0.80;;
21274;SDS011;36472;52.170;20.884;2022-08-07T07:17:55;2.95;;;0.90;;
21274;SDS011;36472;52.170;20.884;2022-08-07T07:20:35;2.10;;;0.75;;
21274;SDS011;36472;52.170;20.884;2022-08-07T07:23:11;1.48;;;0.80;;
21274;SDS011;36472;52.170;20.884;2022-08-07T07:26:02;1.02;;;0.70;;
21274;SDS011;36472;52.170;20.884;2022-08-07T07:28:57;3.33;;;0.70;;
21274;SDS011;36472;52.170;20.884;2022-08-07T07:31:52;3.03;;;0.80;;
21274;SDS011;36472;52.170;20.884;2022-08-07T07:34:27;1.85;;;0.90;;
21274;SDS011;36472;52.170;20.884;2022-08-07T07:37:01;0.98;;;0.70;;
21274;SDS011;36472;52.170;20.884;2022-08-07T07:39:53;2.53;;;1.10;;
21274;SDS011;36472;52.170;20.884;2022-08-07T07:42:36;2.78;;;0.90;;
21274;SDS011;36472;52.170;20.884;2022-08-07T07:45:08;2.00;;;0.80;;
21274;SDS011;36472;52.170;20.884;2022-08-07T07:47:42;1.17;;;0.70;;
21274;SDS011;36472;52.170;20.884;2022-08-07T07:50:20;2.50;;;0.82;;
21274;SDS011;36472;52.170;20.884;2022-08-07T07:53:05;1.42;;;0.68;;
21274;SDS011;36472;52.170;20.884;2022-08-07T07:55:49;2.22;;;0.80;;
21274;SDS011;36472;52.170;20.884;2022-08-07T07:58:27;2.42;;;0.80;;
21274;SDS011;36472;52.170;20.884;2022-08-07T08:01:06;2.38;;;0.70;;
21274;SDS011;36472;52.170;20.884;2022-08-07T08:03:59;2.20;;;0.60;;
21274;SDS011;36472;52.170;20.884;2022-08-07T08:06:39;1.25;;;0.63;;
21274;SDS011;36472;52.170;20.884;2022-08-07T08:09:18;1.67;;;0.80;;
21274;SDS011;36472;52.170;20.884;2022-08-07T08:11:55;1.90;;;0.68;;
21274;SDS011;36472;52.170;20.884;2022-08-07T08:14:31;2.08;;;0.73;;
21274;SDS011;36472;52.170;20.884;2022-08-07T08:17:03;2.72;;;0.75;;
21274;SDS011;36472;52.170;20.884;2022-08-07T08:19:56;0.93;;;0.50;;
21274;SDS011;36472;52.170;20.884;2022-08-07T08:22:50;2.28;;;0.70;;
21274;SDS011;36472;52.170;20.884;2022-08-07T08:25:41;0.90;;;0.50;;
21274;SDS011;36472;52.170;20.884;2022-08-07T08:28:34;2.17;;;0.70;;
21274;SDS011;36472;52.170;20.884;2022-08-07T08:31:11;4.28;;;0.80;;
21274;SDS011;36472;52.170;20.884;2022-08-07T08:34:07;1.65;;;0.75;;
21274;SDS011;36472;52.170;20.884;2022-08-07T08:36:53;1.33;;;0.65;;
21274;SDS011;36472;52.170;20.884;2022-08-07T08:39:26;2.08;;;0.88;;
21274;SDS011;36472;52.170;20.884;2022-08-07T08:42:18;2.05;;;0.70;;
21274;SDS011;36472;52.170;20.884;2022-08-07T08:44:57;4.18;;;0.90;;
21274;SDS011;36472;52.170;20.884;2022-08-07T08:47:42;2.25;;;0.60;;
21274;SDS011;36472;52.170;20.884;2022-08-07T08:50:23;2.72;;;0.70;;
21274;SDS011;36472;52.170;20.884;2022-08-07T08:53:08;1.25;;;0.50;;
21274;SDS011;36472;52.170;20.884;2022-08-07T08:55:48;2.10;;;0.98;;
21274;SDS011;36472;52.170;20.884;2022-08-07T08:58:28;1.90;;;0.68;;
21274;SDS011;36472;52.170;20.884;2022-08-07T09:01:04;2.20;;;0.70;;
21274;SDS011;36472;52.170;20.884;2022-08-07T09:03:48;1.17;;;0.55;;
21274;SDS011;36472;52.170;20.884;2022-08-07T09:06:28;3.10;;;0.75;;
21274;SDS011;36472;52.170;20.884;2022-08-07T09:09:29;1.58;;;0.70;;
21274;SDS011;36472;52.170;20.884;2022-08-07T09:12:28;2.05;;;0.85;;
21274;SDS011;36472;52.170;20.884;2022-08-07T09:15:35;2.72;;;0.70;;
21274;SDS011;36472;52.170;20.884;2022-08-07T09:18:38;1.27;;;0.50;;
21274;SDS011;36472;52.170;20.884;2022-08-07T09:21:53;1.92;;;0.70;;
21274;SDS011;36472;52.170;20.884;2022-08-07T09:24:59;1.27;;;0.40;;
21274;SDS011;36472;52.170;20.884;2022-08-07T09:27:50;1.05;;;0.70;;
21274;SDS011;36472;52.170;20.884;2022-08-07T09:30:32;1.73;;;0.70;;
21274;SDS011;36472;52.170;20.884;2022-08-07T09:33:39;1.20;;;0.60;;
21274;SDS011;36472;52.170;20.884;2022-08-07T09:36:35;1.25;;;0.70;;
21274;SDS011;36472;52.170;20.884;2022-08-07T09:39:19;1.15;;;0.70;;
21274;SDS011;36472;52.170;20.884;2022-08-07T09:42:26;1.65;;;0.90;;
21274;SDS011;36472;52.170;20.884;2022-08-07T09:45:19;0.95;;;0.70;;
21274;SDS011;36472;52.170;20.884;2022-08-07T09:48:25;1.15;;;1.00;;
21274;SDS011;36472;52.170;20.884;2022-08-07T09:51:29;0.93;;;0.50;;
21274;SDS011;36472;52.170;20.884;2022-08-07T09:54:43;1.02;;;0.60;;
21274;SDS011;36472;52.170;20.884;2022-08-07T10:00:31;0.90;;;0.40;;
21274;SDS011;36472;52.170;20.884;2022-08-07T10:03:40;2.83;;;0.82;;
21274;SDS011;36472;52.170;20.884;2022-08-07T10:09:59;2.15;;;0.80;;
21274;SDS011;36472;52.170;20.884;2022-08-07T10:12:51;2.15;;;0.50;;
21274;SDS011;36472;52.170;20.884;2022-08-07T10:16:06;1.35;;;0.70;;
21274;SDS011;36472;52.170;20.884;2022-08-07T10:19:05;2.35;;;0.70;;
21274;SDS011;36472;52.170;20.884;2022-08-07T10:22:14;2.38;;;0.47;;
21274;SDS011;36472;52.170;20.884;2022-08-07T10:25:38;1.10;;;0.65;;
21274;SDS011;36472;52.170;20.884;2022-08-07T10:31:41;0.82;;;0.52;;
21274;SDS011;36472;52.170;20.884;2022-08-07T10:34:29;0.82;;;0.43;;
21274;SDS011;36472;52.170;20.884;2022-08-07T10:37:22;2.85;;;0.80;;
21274;SDS011;36472;52.170;20.884;2022-08-07T10:40:27;1.45;;;0.77;;
21274;SDS011;36472;52.170;20.884;2022-08-07T10:43:06;3.25;;;0.80;;
21274;SDS011;36472;52.170;20.884;2022-08-07T10:45:46;2.67;;;0.70;;
21274;SDS011;36472;52.170;20.884;2022-08-07T10:48:31;2.95;;;0.70;;
21274;SDS011;36472;52.170;20.884;2022-08-07T10:51:13;1.77;;;0.60;;
21274;SDS011;36472;52.170;20.884;2022-08-07T10:54:10;3.17;;;0.88;;
21274;SDS011;36472;52.170;20.884;2022-08-07T10:56:52;3.67;;;0.85;;
21274;SDS011;36472;52.170;20.884;2022-08-07T10:59:40;1.77;;;0.85;;
21274;SDS011;36472;52.170;20.884;2022-08-07T11:02:31;1.90;;;0.80;;
21274;SDS011;36472;52.170;20.884;2022-08-07T11:05:27;0.93;;;0.60;;
21274;SDS011;36472;52.170;20.884;2022-08-07T11:08:19;2.33;;;0.80;;
21274;SDS011;36472;52.170;20.884;2022-08-07T11:11:00;2.63;;;0.90;;
21274;SDS011;36472;52.170;20.884;2022-08-07T11:13:37;3.35;;;0.60;;
21274;SDS011;36472;52.170;20.884;2022-08-07T11:16:35;1.00;;;0.70;;
21274;SDS011;36472;52.170;20.884;2022-08-07T11:19:19;3.13;;;0.80;;
21274;SDS011;36472;52.170;20.884;2022-08-07T11:22:06;1.50;;;0.50;;
21274;SDS011;36472;52.170;20.884;2022-08-07T11:24:58;2.33;;;0.70;;
21274;SDS011;36472;52.170;20.884;2022-08-07T11:27:39;3.47;;;0.90;;
21274;SDS011;36472;52.170;20.884;2022-08-07T11:30:31;1.63;;;0.77;;
21274;SDS011;36472;52.170;20.884;2022-08-07T11:33:10;1.10;;;0.68;;
21274;SDS011;36472;52.170;20.884;2022-08-07T11:36:23;1.08;;;0.63;;
21274;SDS011;36472;52.170;20.884;2022-08-07T11:39:20;1.13;;;0.60;;
21274;SDS011;36472;52.170;20.884;2022-08-07T11:42:26;1.50;;;0.77;;
21274;SDS011;36472;52.170;20.884;2022-08-07T11:45:13;3.50;;;0.70;;
21274;SDS011;36472;52.170;20.884;2022-08-07T11:48:11;2.67;;;0.80;;
21274;SDS011;36472;52.170;20.884;2022-08-07T11:51:33;2.33;;;0.88;;
21274;SDS011;36472;52.170;20.884;2022-08-07T11:54:25;1.35;;;0.70;;
21274;SDS011;36472;52.170;20.884;2022-08-07T11:57:29;1.67;;;0.73;;
21274;SDS011;36472;52.170;20.884;2022-08-07T12:00:29;3.03;;;0.90;;
21274;SDS011;36472;52.170;20.884;2022-08-07T12:06:59;1.55;;;0.80;;
21274;SDS011;36472;52.170;20.884;2022-08-07T12:09:50;2.97;;;0.80;;
21274;SDS011;36472;52.170;20.884;2022-08-07T12:12:33;1.17;;;0.60;;
21274;SDS011;36472;52.170;20.884;2022-08-07T12:15:10;1.13;;;0.60;;
21274;SDS011;36472;52.170;20.884;2022-08-07T12:18:07;2.75;;;0.80;;
21274;SDS011;36472;52.170;20.884;2022-08-07T12:20:58;0.77;;;0.60;;
21274;SDS011;36472;52.170;20.884;2022-08-07T12:24:03;0.95;;;0.60;;
21274;SDS011;36472;52.170;20.884;2022-08-07T12:27:03;1.00;;;0.65;;
21274;SDS011;36472;52.170;20.884;2022-08-07T12:29:45;0.70;;;0.70;;
21274;SDS011;36472;52.170;20.884;2022-08-07T12:32:22;3.00;;;0.80;;
21274;SDS011;36472;52.170;20.884;2022-08-07T12:35:02;0.85;;;0.70;;
21274;SDS011;36472;52.170;20.884;2022-08-07T12:37:34;1.83;;;0.65;;
21274;SDS011;36472;52.170;20.884;2022-08-07T12:40:26;1.38;;;0.68;;
21274;SDS011;36472;52.170;20.884;2022-08-07T12:43:16;2.13;;;0.82;;
21274;SDS011;36472;52.170;20.884;2022-08-07T12:46:14;2.17;;;0.85;;
21274;SDS011;36472;52.170;20.884;2022-08-07T12:49:02;2.28;;;0.70;;
21274;SDS011;36472;52.170;20.884;2022-08-07T12:52:03;0.93;;;0.70;;
21274;SDS011;36472;52.170;20.884;2022-08-07T12:54:46;2.25;;;0.70;;
21274;SDS011;36472;52.170;20.884;2022-08-07T12:57:36;1.08;;;0.50;;
21274;SDS011;36472;52.170;20.884;2022-08-07T13:00:30;2.13;;;0.80;;
21274;SDS011;36472;52.170;20.884;2022-08-07T13:03:30;1.95;;;0.93;;
21274;SDS011;36472;52.170;20.884;2022-08-07T13:06:37;2.75;;;0.88;;
21274;SDS011;36472;52.170;20.884;2022-08-07T13:09:33;1.10;;;1.00;;
21274;SDS011;36472;52.170;20.884;2022-08-07T13:12:43;1.08;;;0.70;;
21274;SDS011;36472;52.170;20.884;2022-08-07T13:15:33;0.70;;;0.70;;
21274;SDS011;36472;52.170;20.884;2022-08-07T13:18:19;1.23;;;0.68;;
21274;SDS011;36472;52.170;20.884;2022-08-07T13:21:16;1.75;;;0.80;;
21274;SDS011;36472;52.170;20.884;2022-08-07T13:24:15;1.98;;;0.60;;
21274;SDS011;36472;52.170;20.884;2022-08-07T13:26:56;3.25;;;0.90;;
21274;SDS011;36472;52.170;20.884;2022-08-07T13:29:48;1.67;;;0.80;;
21274;SDS011;36472;52.170;20.884;2022-08-07T13:32:31;2.38;;;0.80;;
21274;SDS011;36472;52.170;20.884;2022-08-07T13:35:15;1.52;;;0.82;;
21274;SDS011;36472;52.170;20.884;2022-08-07T13:38:13;1.50;;;0.90;;
21274;SDS011;36472;52.170;20.884;2022-08-07T13:40:51;2.08;;;0.88;;
21274;SDS011;36472;52.170;20.884;2022-08-07T13:43:48;2.33;;;1.50;;
21274;SDS011;36472;52.170;20.884;2022-08-07T13:46:27;3.70;;;1.10;;
21274;SDS011;36472;52.170;20.884;2022-08-07T13:49:06;0.93;;;0.60;;
21274;SDS011;36472;52.170;20.884;2022-08-07T13:52:00;1.38;;;0.82;;
21274;SDS011;36472;52.170;20.884;2022-08-07T13:54:53;1.08;;;0.70;;
21274;SDS011;36472;52.170;20.884;2022-08-07T13:57:27;1.30;;;0.75;;
21274;SDS011;36472;52.170;20.884;2022-08-07T14:00:05;1.20;;;0.60;;
21274;SDS011;36472;52.170;20.884;2022-08-07T14:02:54;1.58;;;0.70;;
21274;SDS011;36472;52.170;20.884;2022-08-07T14:05:27;2.30;;;1.08;;
21274;SDS011;36472;52.170;20.884;2022-08-07T14:08:04;1.52;;;1.10;;
21274;SDS011;36472;52.170;20.884;2022-08-07T14:10:36;1.35;;;0.90;;
21274;SDS011;36472;52.170;20.884;2022-08-07T14:13:09;1.17;;;0.70;;
21274;SDS011;36472;52.170;20.884;2022-08-07T14:16:00;0.70;;;0.63;;
21274;SDS011;36472;52.170;20.884;2022-08-07T14:18:43;2.85;;;0.95;;
21274;SDS011;36472;52.170;20.884;2022-08-07T14:21:25;1.63;;;0.70;;
21274;SDS011;36472;52.170;20.884;2022-08-07T14:24:21;3.10;;;0.90;;
21274;SDS011;36472;52.170;20.884;2022-08-07T14:27:00;2.13;;;0.90;;
21274;SDS011;36472;52.170;20.884;2022-08-07T14:29:55;3.00;;;0.93;;
21274;SDS011;36472;52.170;20.884;2022-08-07T14:32:39;2.47;;;0.93;;
21274;SDS011;36472;52.170;20.884;2022-08-07T14:35:14;2.65;;;0.90;;
21274;SDS011;36472;52.170;20.884;2022-08-07T14:38:08;2.53;;;1.10;;
21274;SDS011;36472;52.170;20.884;2022-08-07T14:40:57;1.98;;;0.95;;
21274;SDS011;36472;52.170;20.884;2022-08-07T14:43:32;3.65;;;1.00;;
21274;SDS011;36472;52.170;20.884;2022-08-07T14:46:25;1.65;;;0.82;;
21274;SDS011;36472;52.170;20.884;2022-08-07T14:48:59;1.02;;;0.90;;
21274;SDS011;36472;52.170;20.884;2022-08-07T14:51:49;1.80;;;1.05;;
21274;SDS011;36472;52.170;20.884;2022-08-07T14:54:38;3.45;;;0.95;;
21274;SDS011;36472;52.170;20.884;2022-08-07T14:57:11;0.70;;;0.70;;
21274;SDS011;36472;52.170;20.884;2022-08-07T15:00:03;2.45;;;1.10;;
21274;SDS011;36472;52.170;20.884;2022-08-07T15:02:34;2.10;;;0.80;;
21274;SDS011;36472;52.170;20.884;2022-08-07T15:05:25;1.25;;;0.60;;
21274;SDS011;36472;52.170;20.884;2022-08-07T15:07:56;1.98;;;1.17;;
21274;SDS011;36472;52.170;20.884;2022-08-07T15:10:27;1.58;;;0.90;;
21274;SDS011;36472;52.170;20.884;2022-08-07T15:12:57;2.58;;;0.80;;
21274;SDS011;36472;52.170;20.884;2022-08-07T15:15:38;1.33;;;0.70;;
21274;SDS011;36472;52.170;20.884;2022-08-07T15:18:19;2.63;;;0.90;;
21274;SDS011;36472;52.170;20.884;2022-08-07T15:21:03;2.40;;;1.00;;
21274;SDS011;36472;52.170;20.884;2022-08-07T15:23:58;1.17;;;0.80;;
21274;SDS011;36472;52.170;20.884;2022-08-07T15:27:02;1.58;;;0.90;;
21274;SDS011;36472;52.170;20.884;2022-08-07T15:29:38;1.60;;;1.08;;
21274;SDS011;36472;52.170;20.884;2022-08-07T15:32:29;1.58;;;0.80;;
21274;SDS011;36472;52.170;20.884;2022-08-07T15:35:21;2.17;;;1.23;;
21274;SDS011;36472;52.170;20.884;2022-08-07T15:38:13;2.80;;;1.55;;
21274;SDS011;36472;52.170;20.884;2022-08-07T15:40:56;1.52;;;0.93;;
21274;SDS011;36472;52.170;20.884;2022-08-07T15:43:57;3.45;;;1.20;;
21274;SDS011;36472;52.170;20.884;2022-08-07T15:46:33;1.83;;;0.90;;
21274;SDS011;36472;52.170;20.884;2022-08-07T15:49:18;2.28;;;1.00;;
21274;SDS011;36472;52.170;20.884;2022-08-07T15:52:18;2.50;;;0.90;;
21274;SDS011;36472;52.170;20.884;2022-08-07T15:54:57;1.30;;;0.77;;
21274;SDS011;36472;52.170;20.884;2022-08-07T15:57:30;1.83;;;1.02;;
21274;SDS011;36472;52.170;20.884;2022-08-07T16:00:16;2.72;;;1.20;;
21274;SDS011;36472;52.170;20.884;2022-08-07T16:03:13;1.77;;;0.80;;
21274;SDS011;36472;52.170;20.884;2022-08-07T16:06:07;3.47;;;2.00;;
21274;SDS011;36472;52.170;20.884;2022-08-07T16:08:39;2.22;;;1.33;;
21274;SDS011;36472;52.170;20.884;2022-08-07T16:11:12;2.85;;;1.30;;
21274;SDS011;36472;52.170;20.884;2022-08-07T16:14:10;2.45;;;1.10;;
21274;SDS011;36472;52.170;20.884;2022-08-07T16:16:50;1.65;;;0.98;;
21274;SDS011;36472;52.170;20.884;2022-08-07T16:23:13;3.28;;;1.00;;
21274;SDS011;36472;52.170;20.884;2022-08-07T16:26:18;2.05;;;1.10;;
21274;SDS011;36472;52.170;20.884;2022-08-07T16:29:29;1.48;;;1.17;;
21274;SDS011;36472;52.170;20.884;2022-08-07T16:32:43;2.30;;;0.90;;
21274;SDS011;36472;52.170;20.884;2022-08-07T16:35:21;2.33;;;1.27;;